Aeroporto :
LOGIN :

Iscrizione | Disclaimer

   EN    FR    IT 

 










Sommario :    VFR   VFR Marginale   IFR   IFR Intensivo   IFR Molto Intensivo
Visibilità : 
Base nubi : 
>= 8 km
>= 3000ft
5 / 8 km
1000 / 3000 ft
1500m / 5 km
500 / 1000 ft
800 / 1500m
200 / 500 ft
< 800m
< 200 ft
Simboli :   Temporali  Nebbia  Neve Forte  Precipitazioni Forti  Vento > 20 kt
SIGMETs :   Varie  Temporali  Ghiacco  Turbolenza  Onda orograficha  Ceneri Vulcaniche






- Altitudine del aeroporto : 12 ft
- Codice IATA : BCN


LEBL - Barcelone

ULTIMO METAR :
  • 170000Z 24010KT 8000 BKN016 14/11 Q1025 NOSIG

METARs OBSOLETI :
  • 162330Z 25012KT 9000 BKN017 14/10 Q1025 NOSIG
  • 162300Z 24012KT 9000 BKN018 14/10 Q1025 NOSIG
  • 162230Z 25012KT 9000 BKN020 14/10 Q1026 NOSIG
  • 162200Z 24012KT 9000 BKN022 14/10 Q1026 NOSIG
  • 162130Z 25013KT 9999 BKN022 14/10 Q1026 NOSIG

TAF TAF LEBL
Valido dal 17 a 00 ore il 18 a 00 ore UTC


162300Z 1700/1724 22010KT 9999 BKN010 TX19/1713Z TN11/1706Z
TEMPO 1700/1706 VRB04KT 3000 BR BKN006
TEMPO 1706/1709 33007KT
TEMPO 1715/1719 09005KT
TEMPO 1715/1721 3000 BR BKN006
BECMG 1717/1719 VRB04KT



MetMap, La meteo Aeronautica in un colpo d'occhio ! - Copyright ORBIFLY Dicembre 2007 - Disclaimer

ORBIFLY MET'MAP TEAM :

Programmazione e sviluppo : Alexandra Zaïnal
Concezione : Baudouin d'Aumeries
Aiuto per la programmazione : Marc-Olivier Méhu
Supporto tecnico e logistico : Manuel Goepfert
Aiuto per la traduzione : Arnaldo La Scala

Contatto : metmap@orbifly.com




FONTI E CREDITI :

   NOAA